Terminal Aerodrome Forecast
Issued by NWS Sioux Falls, SD

Home | Current Version | Previous Version | Text Only | Print | Product List | Glossary On
Versions: 1 2 3 4 5 6 7 8 9 10 11 12 13 14 15 16 17
000
FTUS43 KFSD 241901 AAA
TAFHON
TAF AMD
KHON 241901Z 2419/2518 07010KT P6SM OVC015
     FM242100 07008KT P6SM OVC022
     FM250100 04005KT P6SM OVC015
     FM250500 02005KT P6SM OVC015
     FM251500 01008KT P6SM OVC025=

USA.gov is the U.S. government's official web portal to all federal, state and local government web resources and services.